sensor_id;sensor_type;location;lat;lon;timestamp;P1;durP1;ratioP1;P2;durP2;ratioP2
7941;SDS011;4016;50.758;7.150;2022-08-19T00:01:33;7.82;;;7.03;;
7941;SDS011;4016;50.758;7.150;2022-08-19T00:06:36;8.40;;;7.57;;
7941;SDS011;4016;50.758;7.150;2022-08-19T00:11:37;7.93;;;7.13;;
7941;SDS011;4016;50.758;7.150;2022-08-19T00:16:39;7.68;;;6.82;;
7941;SDS011;4016;50.758;7.150;2022-08-19T00:21:41;8.13;;;7.32;;
7941;SDS011;4016;50.758;7.150;2022-08-19T00:26:42;9.32;;;8.30;;
7941;SDS011;4016;50.758;7.150;2022-08-19T00:31:43;7.97;;;7.17;;
7941;SDS011;4016;50.758;7.150;2022-08-19T00:36:44;7.63;;;6.93;;
7941;SDS011;4016;50.758;7.150;2022-08-19T00:41:46;7.20;;;6.55;;
7941;SDS011;4016;50.758;7.150;2022-08-19T00:46:49;8.10;;;7.38;;
7941;SDS011;4016;50.758;7.150;2022-08-19T00:51:53;8.13;;;7.32;;
7941;SDS011;4016;50.758;7.150;2022-08-19T00:56:58;8.03;;;7.23;;
7941;SDS011;4016;50.758;7.150;2022-08-19T01:01:59;7.63;;;6.93;;
7941;SDS011;4016;50.758;7.150;2022-08-19T01:07:00;8.10;;;7.30;;
7941;SDS011;4016;50.758;7.150;2022-08-19T01:12:01;8.37;;;7.20;;
7941;SDS011;4016;50.758;7.150;2022-08-19T01:17:02;8.23;;;7.03;;
7941;SDS011;4016;50.758;7.150;2022-08-19T01:22:06;7.50;;;6.67;;
7941;SDS011;4016;50.758;7.150;2022-08-19T01:27:13;7.80;;;7.00;;
7941;SDS011;4016;50.758;7.150;2022-08-19T01:32:15;8.07;;;7.27;;
7941;SDS011;4016;50.758;7.150;2022-08-19T01:37:16;8.37;;;7.40;;
7941;SDS011;4016;50.758;7.150;2022-08-19T01:42:17;7.93;;;6.87;;
7941;SDS011;4016;50.758;7.150;2022-08-19T01:47:17;8.13;;;7.33;;
7941;SDS011;4016;50.758;7.150;2022-08-19T01:52:18;8.80;;;8.00;;
7941;SDS011;4016;50.758;7.150;2022-08-19T01:57:19;8.17;;;7.37;;
7941;SDS011;4016;50.758;7.150;2022-08-19T02:02:19;7.97;;;7.17;;
7941;SDS011;4016;50.758;7.150;2022-08-19T02:07:20;9.00;;;8.07;;
7941;SDS011;4016;50.758;7.150;2022-08-19T02:12:24;8.30;;;7.20;;
7941;SDS011;4016;50.758;7.150;2022-08-19T02:17:24;8.83;;;7.07;;
7941;SDS011;4016;50.758;7.150;2022-08-19T02:22:24;8.10;;;7.30;;
7941;SDS011;4016;50.758;7.150;2022-08-19T02:27:28;8.17;;;7.37;;
7941;SDS011;4016;50.758;7.150;2022-08-19T02:32:28;7.73;;;6.93;;
7941;SDS011;4016;50.758;7.150;2022-08-19T02:37:30;9.00;;;7.43;;
7941;SDS011;4016;50.758;7.150;2022-08-19T02:42:49;7.77;;;6.73;;
7941;SDS011;4016;50.758;7.150;2022-08-19T02:47:50;8.20;;;7.40;;
7941;SDS011;4016;50.758;7.150;2022-08-19T02:52:50;8.13;;;7.17;;
7941;SDS011;4016;50.758;7.150;2022-08-19T02:57:51;8.03;;;6.87;;
7941;SDS011;4016;50.758;7.150;2022-08-19T03:02:51;8.80;;;7.70;;
7941;SDS011;4016;50.758;7.150;2022-08-19T03:07:52;7.50;;;6.80;;
7941;SDS011;4016;50.758;7.150;2022-08-19T03:12:53;7.87;;;6.97;;
7941;SDS011;4016;50.758;7.150;2022-08-19T03:17:53;9.23;;;8.23;;
7941;SDS011;4016;50.758;7.150;2022-08-19T03:22:54;6.43;;;5.80;;
7941;SDS011;4016;50.758;7.150;2022-08-19T03:27:54;8.17;;;7.27;;
7941;SDS011;4016;50.758;7.150;2022-08-19T03:32:54;8.23;;;7.43;;
7941;SDS011;4016;50.758;7.150;2022-08-19T03:37:55;8.33;;;7.23;;
7941;SDS011;4016;50.758;7.150;2022-08-19T03:42:56;7.53;;;6.83;;
7941;SDS011;4016;50.758;7.150;2022-08-19T03:47:56;7.53;;;6.67;;
7941;SDS011;4016;50.758;7.150;2022-08-19T03:52:57;8.33;;;6.87;;
7941;SDS011;4016;50.758;7.150;2022-08-19T03:57:57;8.20;;;7.40;;
7941;SDS011;4016;50.758;7.150;2022-08-19T04:02:58;7.10;;;6.40;;
7941;SDS011;4016;50.758;7.150;2022-08-19T04:07:59;7.40;;;6.60;;
7941;SDS011;4016;50.758;7.150;2022-08-19T04:13:00;7.90;;;7.10;;
7941;SDS011;4016;50.758;7.150;2022-08-19T04:18:01;8.57;;;7.77;;
7941;SDS011;4016;50.758;7.150;2022-08-19T04:23:01;7.70;;;7.00;;
7941;SDS011;4016;50.758;7.150;2022-08-19T04:28:02;8.73;;;7.50;;
7941;SDS011;4016;50.758;7.150;2022-08-19T04:33:03;8.33;;;7.43;;
7941;SDS011;4016;50.758;7.150;2022-08-19T04:38:04;7.67;;;6.93;;
7941;SDS011;4016;50.758;7.150;2022-08-19T04:43:05;8.27;;;7.17;;
7941;SDS011;4016;50.758;7.150;2022-08-19T04:48:05;7.30;;;6.60;;
7941;SDS011;4016;50.758;7.150;2022-08-19T04:53:05;8.00;;;6.93;;
7941;SDS011;4016;50.758;7.150;2022-08-19T04:58:06;8.97;;;7.60;;
7941;SDS011;4016;50.758;7.150;2022-08-19T05:03:07;8.03;;;7.23;;
7941;SDS011;4016;50.758;7.150;2022-08-19T05:08:07;6.93;;;6.20;;
7941;SDS011;4016;50.758;7.150;2022-08-19T05:13:08;8.70;;;7.87;;
7941;SDS011;4016;50.758;7.150;2022-08-19T05:18:09;8.30;;;7.07;;
7941;SDS011;4016;50.758;7.150;2022-08-19T05:23:29;7.40;;;6.70;;
7941;SDS011;4016;50.758;7.150;2022-08-19T05:28:30;9.27;;;7.50;;
7941;SDS011;4016;50.758;7.150;2022-08-19T05:33:30;7.83;;;7.03;;
7941;SDS011;4016;50.758;7.150;2022-08-19T05:38:31;8.10;;;7.30;;
7941;SDS011;4016;50.758;7.150;2022-08-19T05:43:31;11.03;;;9.90;;
7941;SDS011;4016;50.758;7.150;2022-08-19T05:48:33;16.87;;;12.53;;
7941;SDS011;4016;50.758;7.150;2022-08-19T05:53:34;11.83;;;10.53;;
7941;SDS011;4016;50.758;7.150;2022-08-19T05:58:35;18.20;;;15.57;;
7941;SDS011;4016;50.758;7.150;2022-08-19T06:03:37;21.10;;;15.67;;
7941;SDS011;4016;50.758;7.150;2022-08-19T06:08:38;17.53;;;14.30;;
7941;SDS011;4016;50.758;7.150;2022-08-19T06:13:39;17.77;;;13.67;;
7941;SDS011;4016;50.758;7.150;2022-08-19T06:18:39;17.63;;;14.40;;
7941;SDS011;4016;50.758;7.150;2022-08-19T06:23:39;16.20;;;14.17;;
7941;SDS011;4016;50.758;7.150;2022-08-19T06:28:40;19.23;;;14.70;;
7941;SDS011;4016;50.758;7.150;2022-08-19T06:33:46;17.93;;;14.53;;
7941;SDS011;4016;50.758;7.150;2022-08-19T06:38:47;18.45;;;16.35;;
7941;SDS011;4016;50.758;7.150;2022-08-19T06:43:48;19.75;;;16.45;;
7941;SDS011;4016;50.758;7.150;2022-08-19T06:48:49;21.48;;;17.17;;
7941;SDS011;4016;50.758;7.150;2022-08-19T06:53:50;18.17;;;14.93;;
7941;SDS011;4016;50.758;7.150;2022-08-19T06:58:52;21.52;;;17.65;;
7941;SDS011;4016;50.758;7.150;2022-08-19T07:03:52;18.77;;;15.35;;
7941;SDS011;4016;50.758;7.150;2022-08-19T07:08:53;22.25;;;17.13;;
7941;SDS011;4016;50.758;7.150;2022-08-19T07:13:53;22.15;;;17.23;;
7941;SDS011;4016;50.758;7.150;2022-08-19T07:18:54;23.17;;;16.80;;
7941;SDS011;4016;50.758;7.150;2022-08-19T07:23:56;20.95;;;15.63;;
7941;SDS011;4016;50.758;7.150;2022-08-19T07:28:59;19.60;;;15.13;;
7941;SDS011;4016;50.758;7.150;2022-08-19T07:34:01;19.33;;;15.10;;
7941;SDS011;4016;50.758;7.150;2022-08-19T07:39:10;19.98;;;15.90;;
7941;SDS011;4016;50.758;7.150;2022-08-19T07:44:17;17.85;;;14.38;;
7941;SDS011;4016;50.758;7.150;2022-08-19T07:49:20;17.65;;;13.60;;
7941;SDS011;4016;50.758;7.150;2022-08-19T07:54:21;17.88;;;14.23;;
7941;SDS011;4016;50.758;7.150;2022-08-19T07:59:23;17.05;;;13.98;;
7941;SDS011;4016;50.758;7.150;2022-08-19T08:04:24;15.57;;;12.88;;
7941;SDS011;4016;50.758;7.150;2022-08-19T08:09:43;14.45;;;12.90;;
7941;SDS011;4016;50.758;7.150;2022-08-19T08:14:48;16.73;;;13.75;;
7941;SDS011;4016;50.758;7.150;2022-08-19T08:19:50;15.73;;;12.68;;
7941;SDS011;4016;50.758;7.150;2022-08-19T08:24:51;14.88;;;13.02;;
7941;SDS011;4016;50.758;7.150;2022-08-19T08:29:51;15.00;;;12.77;;
7941;SDS011;4016;50.758;7.150;2022-08-19T08:34:52;14.35;;;12.68;;
7941;SDS011;4016;50.758;7.150;2022-08-19T08:39:52;14.15;;;11.43;;
7941;SDS011;4016;50.758;7.150;2022-08-19T08:44:58;13.32;;;11.50;;
7941;SDS011;4016;50.758;7.150;2022-08-19T08:50:15;12.35;;;11.05;;
7941;SDS011;4016;50.758;7.150;2022-08-19T08:55:24;14.63;;;11.85;;
7941;SDS011;4016;50.758;7.150;2022-08-19T09:00:31;14.15;;;11.55;;
7941;SDS011;4016;50.758;7.150;2022-08-19T09:06:10;14.25;;;11.73;;
7941;SDS011;4016;50.758;7.150;2022-08-19T09:11:00;13.13;;;11.30;;
7941;SDS011;4016;50.758;7.150;2022-08-19T09:16:07;15.50;;;12.68;;
7941;SDS011;4016;50.758;7.150;2022-08-19T09:21:14;12.15;;;10.43;;
7941;SDS011;4016;50.758;7.150;2022-08-19T09:26:19;15.35;;;12.13;;
7941;SDS011;4016;50.758;7.150;2022-08-19T09:31:22;13.88;;;12.02;;
7941;SDS011;4016;50.758;7.150;2022-08-19T09:36:25;14.43;;;10.45;;
7941;SDS011;4016;50.758;7.150;2022-08-19T09:41:28;13.38;;;11.18;;
7941;SDS011;4016;50.758;7.150;2022-08-19T09:46:29;14.85;;;12.55;;
7941;SDS011;4016;50.758;7.150;2022-08-19T09:51:30;15.80;;;13.50;;
7941;SDS011;4016;50.758;7.150;2022-08-19T09:56:31;15.75;;;14.10;;
7941;SDS011;4016;50.758;7.150;2022-08-19T10:01:32;16.17;;;14.02;;
7941;SDS011;4016;50.758;7.150;2022-08-19T10:06:32;19.67;;;14.52;;
7941;SDS011;4016;50.758;7.150;2022-08-19T10:11:34;14.80;;;12.15;;
7941;SDS011;4016;50.758;7.150;2022-08-19T10:16:35;17.10;;;13.82;;
7941;SDS011;4016;50.758;7.150;2022-08-19T10:21:37;14.07;;;11.88;;
7941;SDS011;4016;50.758;7.150;2022-08-19T10:26:39;12.82;;;11.35;;
7941;SDS011;4016;50.758;7.150;2022-08-19T10:31:45;14.75;;;12.05;;
7941;SDS011;4016;50.758;7.150;2022-08-19T10:36:47;14.98;;;12.23;;
7941;SDS011;4016;50.758;7.150;2022-08-19T10:41:47;15.65;;;12.13;;
7941;SDS011;4016;50.758;7.150;2022-08-19T10:46:48;16.75;;;11.27;;
7941;SDS011;4016;50.758;7.150;2022-08-19T10:51:49;11.20;;;10.02;;
7941;SDS011;4016;50.758;7.150;2022-08-19T10:57:08;11.48;;;9.80;;
7941;SDS011;4016;50.758;7.150;2022-08-19T11:02:09;9.77;;;8.77;;
7941;SDS011;4016;50.758;7.150;2022-08-19T11:07:11;11.38;;;9.95;;
7941;SDS011;4016;50.758;7.150;2022-08-19T11:12:12;9.70;;;8.67;;
7941;SDS011;4016;50.758;7.150;2022-08-19T11:17:12;10.13;;;8.82;;
7941;SDS011;4016;50.758;7.150;2022-08-19T11:22:13;10.43;;;9.30;;
7941;SDS011;4016;50.758;7.150;2022-08-19T11:27:13;9.80;;;8.80;;
7941;SDS011;4016;50.758;7.150;2022-08-19T11:32:14;10.10;;;9.07;;
7941;SDS011;4016;50.758;7.150;2022-08-19T11:37:15;9.95;;;8.95;;
7941;SDS011;4016;50.758;7.150;2022-08-19T11:42:17;9.63;;;8.27;;
7941;SDS011;4016;50.758;7.150;2022-08-19T11:47:36;7.60;;;6.90;;
7941;SDS011;4016;50.758;7.150;2022-08-19T11:52:37;8.00;;;7.28;;
7941;SDS011;4016;50.758;7.150;2022-08-19T11:57:37;9.15;;;8.25;;
7941;SDS011;4016;50.758;7.150;2022-08-19T12:02:38;9.23;;;8.23;;
7941;SDS011;4016;50.758;7.150;2022-08-19T12:07:40;10.77;;;7.97;;
7941;SDS011;4016;50.758;7.150;2022-08-19T12:12:41;8.70;;;7.60;;
7941;SDS011;4016;50.758;7.150;2022-08-19T12:17:42;8.10;;;7.32;;
7941;SDS011;4016;50.758;7.150;2022-08-19T12:22:43;8.23;;;7.38;;
7941;SDS011;4016;50.758;7.150;2022-08-19T12:27:43;7.50;;;6.43;;
7941;SDS011;4016;50.758;7.150;2022-08-19T12:32:44;7.88;;;7.10;;
7941;SDS011;4016;50.758;7.150;2022-08-19T12:37:45;9.80;;;7.47;;
7941;SDS011;4016;50.758;7.150;2022-08-19T12:42:47;8.75;;;7.95;;
7941;SDS011;4016;50.758;7.150;2022-08-19T12:47:49;8.43;;;7.60;;
7941;SDS011;4016;50.758;7.150;2022-08-19T12:52:51;6.97;;;6.38;;
7941;SDS011;4016;50.758;7.150;2022-08-19T12:57:52;7.03;;;6.43;;
7941;SDS011;4016;50.758;7.150;2022-08-19T13:02:52;9.40;;;8.53;;
7941;SDS011;4016;50.758;7.150;2022-08-19T13:07:53;9.48;;;8.57;;
7941;SDS011;4016;50.758;7.150;2022-08-19T13:12:56;9.38;;;8.18;;
7941;SDS011;4016;50.758;7.150;2022-08-19T13:17:59;8.38;;;7.57;;
7941;SDS011;4016;50.758;7.150;2022-08-19T13:22:59;7.68;;;6.88;;
7941;SDS011;4016;50.758;7.150;2022-08-19T13:28:00;7.33;;;6.63;;
7941;SDS011;4016;50.758;7.150;2022-08-19T13:33:00;7.80;;;6.90;;
7941;SDS011;4016;50.758;7.150;2022-08-19T13:38:18;7.72;;;7.03;;
7941;SDS011;4016;50.758;7.150;2022-08-19T13:43:21;8.55;;;7.05;;
7941;SDS011;4016;50.758;7.150;2022-08-19T13:48:25;7.10;;;6.40;;
7941;SDS011;4016;50.758;7.150;2022-08-19T13:53:27;8.02;;;7.22;;
7941;SDS011;4016;50.758;7.150;2022-08-19T13:58:27;7.37;;;6.63;;
7941;SDS011;4016;50.758;7.150;2022-08-19T14:03:28;7.15;;;5.90;;
7941;SDS011;4016;50.758;7.150;2022-08-19T14:08:30;6.63;;;6.03;;
7941;SDS011;4016;50.758;7.150;2022-08-19T14:13:32;6.32;;;5.70;;
7941;SDS011;4016;50.758;7.150;2022-08-19T14:18:33;6.90;;;6.30;;
7941;SDS011;4016;50.758;7.150;2022-08-19T14:23:34;8.68;;;7.25;;
7941;SDS011;4016;50.758;7.150;2022-08-19T14:28:36;5.68;;;5.18;;
7941;SDS011;4016;50.758;7.150;2022-08-19T14:33:36;8.55;;;6.95;;
7941;SDS011;4016;50.758;7.150;2022-08-19T14:38:36;7.60;;;6.33;;
7941;SDS011;4016;50.758;7.150;2022-08-19T14:43:37;8.07;;;7.20;;
7941;SDS011;4016;50.758;7.150;2022-08-19T14:48:38;7.30;;;6.53;;
7941;SDS011;4016;50.758;7.150;2022-08-19T14:53:38;7.20;;;6.28;;
7941;SDS011;4016;50.758;7.150;2022-08-19T14:58:40;7.45;;;6.68;;
7941;SDS011;4016;50.758;7.150;2022-08-19T15:03:42;8.80;;;6.55;;
7941;SDS011;4016;50.758;7.150;2022-08-19T15:08:42;6.20;;;5.60;;
7941;SDS011;4016;50.758;7.150;2022-08-19T15:13:44;8.75;;;5.70;;
7941;SDS011;4016;50.758;7.150;2022-08-19T15:18:46;6.55;;;5.57;;
7941;SDS011;4016;50.758;7.150;2022-08-19T15:23:50;6.68;;;5.60;;
7941;SDS011;4016;50.758;7.150;2022-08-19T15:28:51;6.15;;;5.53;;
7941;SDS011;4016;50.758;7.150;2022-08-19T15:33:52;5.83;;;5.23;;
7941;SDS011;4016;50.758;7.150;2022-08-19T15:38:57;5.45;;;4.80;;
7941;SDS011;4016;50.758;7.150;2022-08-19T15:44:08;5.38;;;4.38;;
7941;SDS011;4016;50.758;7.150;2022-08-19T15:49:11;5.15;;;4.50;;
7941;SDS011;4016;50.758;7.150;2022-08-19T15:54:14;4.63;;;3.90;;
7941;SDS011;4016;50.758;7.150;2022-08-19T15:59:16;3.75;;;3.30;;
7941;SDS011;4016;50.758;7.150;2022-08-19T16:04:35;3.67;;;3.08;;
7941;SDS011;4016;50.758;7.150;2022-08-19T16:09:54;3.72;;;3.42;;
7941;SDS011;4016;50.758;7.150;2022-08-19T16:14:55;4.43;;;3.77;;
7941;SDS011;4016;50.758;7.150;2022-08-19T16:19:56;5.35;;;3.60;;
7941;SDS011;4016;50.758;7.150;2022-08-19T16:24:56;3.50;;;3.20;;
7941;SDS011;4016;50.758;7.150;2022-08-19T16:29:57;3.63;;;3.33;;
7941;SDS011;4016;50.758;7.150;2022-08-19T16:34:57;5.43;;;4.65;;
7941;SDS011;4016;50.758;7.150;2022-08-19T16:39:59;4.60;;;3.70;;
7941;SDS011;4016;50.758;7.150;2022-08-19T16:44:59;4.90;;;4.50;;
7941;SDS011;4016;50.758;7.150;2022-08-19T16:49:59;3.90;;;3.33;;
7941;SDS011;4016;50.758;7.150;2022-08-19T16:55:00;3.38;;;3.15;;
7941;SDS011;4016;50.758;7.150;2022-08-19T17:00:01;3.40;;;3.10;;
7941;SDS011;4016;50.758;7.150;2022-08-19T17:05:08;4.57;;;3.53;;
7941;SDS011;4016;50.758;7.150;2022-08-19T17:10:09;3.67;;;3.38;;
7941;SDS011;4016;50.758;7.150;2022-08-19T17:15:10;4.25;;;3.20;;
7941;SDS011;4016;50.758;7.150;2022-08-19T17:20:10;3.08;;;2.80;;
7941;SDS011;4016;50.758;7.150;2022-08-19T17:25:10;3.97;;;3.67;;
7941;SDS011;4016;50.758;7.150;2022-08-19T17:30:12;3.20;;;3.00;;
7941;SDS011;4016;50.758;7.150;2022-08-19T17:35:13;3.03;;;2.78;;
7941;SDS011;4016;50.758;7.150;2022-08-19T17:40:18;3.03;;;2.83;;
7941;SDS011;4016;50.758;7.150;2022-08-19T17:45:19;3.15;;;2.78;;
7941;SDS011;4016;50.758;7.150;2022-08-19T17:50:20;3.40;;;3.03;;
7941;SDS011;4016;50.758;7.150;2022-08-19T17:55:20;2.67;;;2.47;;
7941;SDS011;4016;50.758;7.150;2022-08-19T18:00:22;2.75;;;2.50;;
7941;SDS011;4016;50.758;7.150;2022-08-19T18:05:24;3.33;;;2.95;;
7941;SDS011;4016;50.758;7.150;2022-08-19T18:10:29;3.42;;;2.70;;
7941;SDS011;4016;50.758;7.150;2022-08-19T18:15:30;3.10;;;2.75;;
7941;SDS011;4016;50.758;7.150;2022-08-19T18:20:31;4.75;;;3.00;;
7941;SDS011;4016;50.758;7.150;2022-08-19T18:25:31;2.40;;;2.30;;
7941;SDS011;4016;50.758;7.150;2022-08-19T18:30:32;3.00;;;2.70;;
7941;SDS011;4016;50.758;7.150;2022-08-19T18:35:33;3.03;;;2.60;;
7941;SDS011;4016;50.758;7.150;2022-08-19T18:40:37;6.40;;;2.55;;
7941;SDS011;4016;50.758;7.150;2022-08-19T18:45:56;2.90;;;2.60;;
7941;SDS011;4016;50.758;7.150;2022-08-19T18:51:15;3.08;;;2.88;;
7941;SDS011;4016;50.758;7.150;2022-08-19T18:56:17;3.15;;;2.90;;
7941;SDS011;4016;50.758;7.150;2022-08-19T19:01:24;3.08;;;2.83;;
7941;SDS011;4016;50.758;7.150;2022-08-19T19:06:33;3.50;;;3.20;;
7941;SDS011;4016;50.758;7.150;2022-08-19T19:11:40;2.83;;;2.58;;
7941;SDS011;4016;50.758;7.150;2022-08-19T19:16:44;3.40;;;3.10;;
7941;SDS011;4016;50.758;7.150;2022-08-19T19:21:46;2.75;;;2.55;;
7941;SDS011;4016;50.758;7.150;2022-08-19T19:26:49;4.85;;;3.10;;
7941;SDS011;4016;50.758;7.150;2022-08-19T19:31:51;3.50;;;3.20;;
7941;SDS011;4016;50.758;7.150;2022-08-19T19:36:52;3.38;;;3.08;;
7941;SDS011;4016;50.758;7.150;2022-08-19T19:41:52;3.55;;;3.25;;
7941;SDS011;4016;50.758;7.150;2022-08-19T19:46:53;3.58;;;2.97;;
7941;SDS011;4016;50.758;7.150;2022-08-19T19:51:54;3.60;;;3.30;;
7941;SDS011;4016;50.758;7.150;2022-08-19T19:56:54;3.33;;;2.80;;
7941;SDS011;4016;50.758;7.150;2022-08-19T20:01:55;3.77;;;3.13;;
7941;SDS011;4016;50.758;7.150;2022-08-19T20:06:56;3.25;;;2.95;;
7941;SDS011;4016;50.758;7.150;2022-08-19T20:11:56;3.13;;;2.83;;
7941;SDS011;4016;50.758;7.150;2022-08-19T20:16:57;3.05;;;2.85;;
7941;SDS011;4016;50.758;7.150;2022-08-19T20:21:59;2.95;;;2.75;;
7941;SDS011;4016;50.758;7.150;2022-08-19T20:27:00;2.80;;;2.60;;
7941;SDS011;4016;50.758;7.150;2022-08-19T20:32:02;3.13;;;2.80;;
7941;SDS011;4016;50.758;7.150;2022-08-19T20:37:02;3.10;;;2.80;;
7941;SDS011;4016;50.758;7.150;2022-08-19T20:42:03;2.17;;;1.95;;
7941;SDS011;4016;50.758;7.150;2022-08-19T20:47:04;2.60;;;2.40;;
7941;SDS011;4016;50.758;7.150;2022-08-19T20:52:05;2.70;;;2.50;;
7941;SDS011;4016;50.758;7.150;2022-08-19T20:57:05;2.50;;;2.30;;
7941;SDS011;4016;50.758;7.150;2022-08-19T21:02:06;2.43;;;2.23;;
7941;SDS011;4016;50.758;7.150;2022-08-19T21:07:06;2.40;;;2.05;;
7941;SDS011;4016;50.758;7.150;2022-08-19T21:12:08;2.15;;;1.90;;
7941;SDS011;4016;50.758;7.150;2022-08-19T21:17:11;2.30;;;2.20;;
7941;SDS011;4016;50.758;7.150;2022-08-19T21:22:12;2.05;;;1.90;;
7941;SDS011;4016;50.758;7.150;2022-08-19T21:27:12;1.90;;;1.80;;
7941;SDS011;4016;50.758;7.150;2022-08-19T21:32:12;2.33;;;2.13;;
7941;SDS011;4016;50.758;7.150;2022-08-19T21:37:13;2.33;;;2.17;;
7941;SDS011;4016;50.758;7.150;2022-08-19T21:42:14;2.22;;;2.08;;
7941;SDS011;4016;50.758;7.150;2022-08-19T21:47:15;2.60;;;2.40;;
7941;SDS011;4016;50.758;7.150;2022-08-19T21:52:21;3.05;;;1.80;;
7941;SDS011;4016;50.758;7.150;2022-08-19T21:57:23;2.25;;;2.15;;
7941;SDS011;4016;50.758;7.150;2022-08-19T22:02:25;2.30;;;2.10;;
7941;SDS011;4016;50.758;7.150;2022-08-19T22:07:27;2.47;;;2.28;;
7941;SDS011;4016;50.758;7.150;2022-08-19T22:12:29;2.33;;;2.13;;
7941;SDS011;4016;50.758;7.150;2022-08-19T22:17:33;2.20;;;2.00;;
7941;SDS011;4016;50.758;7.150;2022-08-19T22:22:34;2.15;;;2.03;;
7941;SDS011;4016;50.758;7.150;2022-08-19T22:27:35;2.42;;;2.22;;
7941;SDS011;4016;50.758;7.150;2022-08-19T22:32:36;2.25;;;2.05;;
7941;SDS011;4016;50.758;7.150;2022-08-19T22:37:36;2.30;;;2.10;;
7941;SDS011;4016;50.758;7.150;2022-08-19T22:42:37;1.75;;;1.65;;
7941;SDS011;4016;50.758;7.150;2022-08-19T22:47:38;1.90;;;1.80;;
7941;SDS011;4016;50.758;7.150;2022-08-19T22:52:38;1.92;;;1.83;;
7941;SDS011;4016;50.758;7.150;2022-08-19T22:57:41;2.05;;;1.95;;
7941;SDS011;4016;50.758;7.150;2022-08-19T23:02:42;1.40;;;1.40;;
7941;SDS011;4016;50.758;7.150;2022-08-19T23:07:42;1.58;;;1.48;;
7941;SDS011;4016;50.758;7.150;2022-08-19T23:12:45;1.88;;;1.77;;
7941;SDS011;4016;50.758;7.150;2022-08-19T23:17:46;2.05;;;1.83;;
7941;SDS011;4016;50.758;7.150;2022-08-19T23:22:47;2.35;;;2.05;;
7941;SDS011;4016;50.758;7.150;2022-08-19T23:27:51;2.08;;;1.88;;
7941;SDS011;4016;50.758;7.150;2022-08-19T23:38:20;1.67;;;1.58;;
7941;SDS011;4016;50.758;7.150;2022-08-19T23:43:22;1.98;;;1.83;;
7941;SDS011;4016;50.758;7.150;2022-08-19T23:48:24;2.15;;;2.05;;
7941;SDS011;4016;50.758;7.150;2022-08-19T23:53:25;2.00;;;1.90;;
7941;SDS011;4016;50.758;7.150;2022-08-19T23:58:27;1.98;;;1.88;;
